Time;durP1;ratioP1;P1;durP2;ratioP2;P2;SDS_P1;SDS_P2;PMS_P1;PMS_P2;Temp;Humidity;BMP_temperature;BMP_pressure;BME280_temperature;BME280_humidity;BME280_pressure;Samples;Min_cycle;Max_cycle;Signal;HPM_P1;HPM_P2
2022/03/15 00:00:50;;;;;;;28.98;22.50;;;8.20;99.90;;;;;;5073807;28;20481;-55
2022/03/15 00:03:15;;;;;;;33.08;22.70;;;8.20;99.90;;;;;;5090115;28;20390;-54
2022/03/15 00:05:41;;;;;;;32.90;22.60;;;8.20;99.90;;;;;;5072383;28;20382;-55
2022/03/15 00:08:08;;;;;;;33.17;22.88;;;8.10;99.90;;;;;;5072754;28;20889;-53
2022/03/15 00:10:33;;;;;;;30.52;21.23;;;8.10;99.90;;;;;;5071526;28;20406;-55
2022/03/15 00:12:59;;;;;;;30.50;21.83;;;8.10;99.90;;;;;;5071267;28;20382;-56
2022/03/15 00:15:26;;;;;;;32.63;23.05;;;8.00;99.90;;;;;;5073020;28;20390;-55
2022/03/15 00:17:52;;;;;;;24.92;21.27;;;8.10;99.90;;;;;;5072956;28;20992;-54
2022/03/15 00:20:21;;;;;;;30.25;22.08;;;8.10;99.90;;;;;;5090581;28;20527;-55
2022/03/15 00:22:49;;;;;;;29.30;21.43;;;8.20;99.90;;;;;;5096688;28;20811;-53
2022/03/15 00:25:18;;;;;;;28.40;20.27;;;8.10;99.90;;;;;;5078495;28;20408;-54
2022/03/15 00:27:50;;;;;;;24.65;20.17;;;8.20;99.90;;;;;;5079218;28;20916;-51
2022/03/15 00:30:16;;;;;;;27.45;20.55;;;8.00;99.90;;;;;;5079503;28;20861;-51
2022/03/15 00:32:42;;;;;;;26.88;19.65;;;8.00;99.90;;;;;;5080317;28;21148;-53
2022/03/15 00:35:16;;;;;;;27.67;20.85;;;8.00;99.90;;;;;;5079203;28;20485;-54
2022/03/15 00:37:42;;;;;;;30.25;19.80;;;8.00;99.90;;;;;;5079725;28;20394;-53
2022/03/15 00:40:08;;;;;;;28.15;20.77;;;8.00;99.90;;;;;;5093003;28;20392;-53
2022/03/15 00:42:34;;;;;;;27.92;19.98;;;7.90;99.90;;;;;;5073491;28;20417;-53
2022/03/15 00:45:06;;;;;;;26.45;20.58;;;7.90;99.90;;;;;;5074713;28;20390;-53
2022/03/15 00:47:32;;;;;;;25.92;19.80;;;7.90;99.90;;;;;;5074715;28;20501;-52
2022/03/15 00:49:57;;;;;;;32.60;21.20;;;8.00;99.90;;;;;;5075278;28;20488;-54
2022/03/15 00:52:23;;;;;;;29.95;21.63;;;7.90;99.90;;;;;;5075755;28;20454;-52
2022/03/15 00:54:48;;;;;;;35.75;23.25;;;7.90;99.90;;;;;;5092542;28;20751;-56
2022/03/15 00:57:14;;;;;;;32.72;23.67;;;7.70;99.90;;;;;;5093164;28;20394;-54
2022/03/15 00:59:40;;;;;;;36.13;25.03;;;7.60;99.90;;;;;;5092873;28;20386;-54
2022/03/15 01:02:05;;;;;;;36.10;23.77;;;7.60;99.90;;;;;;5076267;28;20464;-52
2022/03/15 01:04:31;;;;;;;40.83;25.30;;;7.30;99.90;;;;;;5076780;28;20455;-55
2022/03/15 01:06:57;;;;;;;40.47;26.48;;;7.30;99.90;;;;;;5075714;28;20406;-56
2022/03/15 01:09:22;;;;;;;41.17;26.90;;;7.20;99.90;;;;;;5093250;28;20685;-57
2022/03/15 01:11:48;;;;;;;42.83;27.67;;;7.20;99.90;;;;;;5076619;28;20463;-56
2022/03/15 01:14:14;;;;;;;42.58;27.23;;;7.20;99.90;;;;;;5076394;28;20382;-53
2022/03/15 01:16:40;;;;;;;37.90;26.27;;;7.30;99.90;;;;;;5091928;28;20382;-56
2022/03/15 01:19:07;;;;;;;39.47;26.47;;;7.30;99.90;;;;;;5073094;28;20723;-55
2022/03/15 01:21:37;;;;;;;39.03;27.60;;;7.30;99.90;;;;;;5092484;28;20811;-54
2022/03/15 01:24:05;;;;;;;37.33;25.88;;;7.30;99.90;;;;;;5075103;28;20390;-57
2022/03/15 01:26:31;;;;;;;35.65;25.83;;;7.30;99.90;;;;;;5075780;28;20898;-53
2022/03/15 01:28:56;;;;;;;36.47;25.07;;;7.30;99.90;;;;;;5075812;28;20425;-57
2022/03/15 01:31:22;;;;;;;33.47;25.10;;;7.30;99.90;;;;;;5092300;28;20758;-57
2022/03/15 01:33:48;;;;;;;36.70;26.03;;;7.40;99.90;;;;;;5075614;28;20393;-53
2022/03/15 01:36:13;;;;;;;34.50;24.27;;;7.40;99.90;;;;;;5077179;28;20382;-56
2022/03/15 01:38:39;;;;;;;33.15;23.55;;;7.40;99.90;;;;;;5077053;28;20877;-56
2022/03/15 01:41:04;;;;;;;37.00;24.93;;;7.50;99.90;;;;;;5076718;28;20386;-54
2022/03/15 01:43:31;;;;;;;28.43;22.43;;;7.60;99.90;;;;;;5076683;28;20413;-56
2022/03/15 01:45:56;;;;;;;34.45;25.30;;;7.60;99.90;;;;;;5075807;28;20726;-54
2022/03/15 01:48:22;;;;;;;32.20;23.17;;;7.60;99.90;;;;;;5074680;28;20374;-55
2022/03/15 01:50:47;;;;;;;34.10;25.00;;;7.60;99.90;;;;;;5074848;28;20494;-56
2022/03/15 01:53:15;;;;;;;33.95;23.63;;;7.40;99.90;;;;;;5072081;28;20427;-56
2022/03/15 01:55:40;;;;;;;34.78;23.73;;;7.40;99.90;;;;;;5073660;28;20383;-56
2022/03/15 01:58:06;;;;;;;36.30;25.00;;;7.40;99.90;;;;;;5055198;28;20407;-56
2022/03/15 02:00:32;;;;;;;33.60;24.03;;;7.40;99.90;;;;;;5072438;28;20383;-53
2022/03/15 02:02:58;;;;;;;34.53;22.83;;;7.40;99.90;;;;;;5054767;28;20380;-53
2022/03/15 02:05:23;;;;;;;36.88;24.50;;;7.30;99.90;;;;;;5054006;28;20811;-55
2022/03/15 02:07:49;;;;;;;37.17;23.50;;;7.40;99.90;;;;;;5072244;28;20404;-56
2022/03/15 02:10:14;;;;;;;34.27;23.30;;;7.40;99.90;;;;;;5070535;28;20475;-54
2022/03/15 02:12:40;;;;;;;34.53;23.53;;;7.40;99.90;;;;;;5053910;28;20406;-52
2022/03/15 02:15:07;;;;;;;33.67;22.80;;;7.50;99.90;;;;;;5071544;28;20790;-55
2022/03/15 02:17:33;;;;;;;38.72;26.08;;;7.50;99.90;;;;;;5056759;28;20392;-56
2022/03/15 02:19:59;;;;;;;39.70;26.75;;;7.40;99.90;;;;;;5059192;28;20380;-52
2022/03/15 02:22:25;;;;;;;40.45;28.05;;;7.40;99.90;;;;;;5075732;28;20411;-53
2022/03/15 02:24:51;;;;;;;42.42;27.40;;;7.30;99.90;;;;;;5060158;28;20462;-56
2022/03/15 02:27:20;;;;;;;41.42;27.27;;;7.30;99.90;;;;;;5078607;28;20403;-57
2022/03/15 02:29:45;;;;;;;42.80;27.30;;;7.20;99.90;;;;;;5077315;28;20779;-54
2022/03/15 02:32:11;;;;;;;38.80;26.53;;;7.20;99.90;;;;;;5076757;28;20394;-51
2022/03/15 02:34:37;;;;;;;39.77;26.33;;;7.20;99.90;;;;;;5060251;28;20730;-52
2022/03/15 02:37:03;;;;;;;39.97;26.53;;;7.10;99.90;;;;;;5059676;28;20410;-56
2022/03/15 02:39:29;;;;;;;38.35;25.75;;;7.10;99.90;;;;;;5059345;28;20395;-51
2022/03/15 02:41:54;;;;;;;41.83;28.02;;;7.10;99.90;;;;;;5077236;28;20465;-50
2022/03/15 02:44:19;;;;;;;36.88;26.08;;;7.10;99.90;;;;;;5078668;28;20379;-56
2022/03/15 02:46:49;;;;;;;41.03;26.73;;;6.90;99.90;;;;;;5060307;28;20743;-56
2022/03/15 02:49:16;;;;;;;37.45;25.25;;;6.80;99.90;;;;;;5059386;28;20475;-54
2022/03/15 02:51:41;;;;;;;36.80;25.40;;;6.90;99.90;;;;;;5059191;28;20426;-54
2022/03/15 02:54:11;;;;;;;33.33;24.63;;;7.00;99.90;;;;;;5071785;28;20442;-51
2022/03/15 02:56:42;;;;;;;37.60;25.95;;;7.00;99.90;;;;;;5080463;28;21206;-52
2022/03/15 02:59:08;;;;;;;34.95;25.73;;;7.10;99.90;;;;;;5080740;28;20440;-55
2022/03/15 03:01:34;;;;;;;38.77;25.87;;;7.00;99.90;;;;;;5097606;28;20672;-52
2022/03/15 03:03:59;;;;;;;36.95;26.10;;;7.00;99.90;;;;;;5077659;28;20417;-55
2022/03/15 03:06:25;;;;;;;43.43;28.57;;;7.00;99.90;;;;;;5078900;28;20444;-52
2022/03/15 03:08:50;;;;;;;43.10;28.93;;;6.90;99.90;;;;;;5079726;28;20394;-53
2022/03/15 03:11:16;;;;;;;47.80;28.83;;;7.00;99.90;;;;;;5079606;28;20393;-53
2022/03/15 03:13:44;;;;;;;50.90;30.08;;;6.80;99.90;;;;;;5079170;28;20686;-54
2022/03/15 03:16:12;;;;;;;49.20;29.88;;;6.70;99.90;;;;;;5078526;28;20435;-53
2022/03/15 03:18:37;;;;;;;45.57;29.20;;;6.70;99.90;;;;;;5096527;28;20390;-53
2022/03/15 03:21:05;;;;;;;46.97;29.10;;;6.70;99.90;;;;;;5077576;28;20436;-57
2022/03/15 03:23:32;;;;;;;47.42;28.75;;;6.70;99.90;;;;;;5077368;28;20665;-54
2022/03/15 03:25:59;;;;;;;53.35;29.45;;;6.80;99.90;;;;;;5094945;28;20397;-52
2022/03/15 03:28:25;;;;;;;45.67;29.27;;;6.80;99.90;;;;;;5094130;28;20374;-56
2022/03/15 03:30:51;;;;;;;47.80;29.93;;;6.90;99.90;;;;;;5076538;28;20386;-54
2022/03/15 03:33:19;;;;;;;44.45;29.48;;;6.90;99.90;;;;;;5076512;28;20413;-53
2022/03/15 03:35:45;;;;;;;47.08;28.98;;;7.00;99.90;;;;;;5076294;28;20378;-54
2022/03/15 03:38:12;;;;;;;44.47;28.60;;;7.00;99.90;;;;;;5073930;28;20417;-55
2022/03/15 03:40:38;;;;;;;41.95;27.90;;;7.00;99.90;;;;;;5091103;28;20390;-54
2022/03/15 03:43:04;;;;;;;42.83;27.40;;;7.10;99.90;;;;;;5071980;28;20757;-57
2022/03/15 03:45:30;;;;;;;45.40;29.52;;;7.10;99.90;;;;;;5071764;28;20378;-56
2022/03/15 03:47:56;;;;;;;44.75;28.85;;;7.10;99.90;;;;;;5071799;28;20417;-55
2022/03/15 03:50:22;;;;;;;46.45;28.90;;;7.10;99.90;;;;;;5072005;28;20424;-54
2022/03/15 03:52:47;;;;;;;43.78;27.92;;;7.10;99.90;;;;;;5072071;28;20463;-55
2022/03/15 03:55:13;;;;;;;46.37;29.13;;;7.20;99.90;;;;;;5071527;28;20485;-56
2022/03/15 03:57:38;;;;;;;49.50;30.77;;;7.20;99.90;;;;;;5090568;28;20466;-55
2022/03/15 04:00:06;;;;;;;51.90;32.30;;;7.10;99.90;;;;;;5073881;28;20713;-57
2022/03/15 04:02:32;;;;;;;58.65;32.90;;;7.10;99.90;;;;;;5075765;28;20385;-57
2022/03/15 04:04:58;;;;;;;60.60;38.88;;;7.10;99.90;;;;;;5076072;28;20443;-56
2022/03/15 04:07:24;;;;;;;98.50;49.03;;;7.00;99.90;;;;;;5075873;28;20499;-55
2022/03/15 04:09:51;;;;;;;97.50;52.28;;;6.90;99.90;;;;;;5074907;28;20378;-57
2022/03/15 04:12:21;;;;;;;98.20;52.83;;;6.80;99.90;;;;;;5074244;28;20952;-57
2022/03/15 04:14:46;;;;;;;102.47;55.35;;;6.70;99.90;;;;;;5076556;28;20365;-57
2022/03/15 04:17:13;;;;;;;105.50;54.92;;;6.60;99.90;;;;;;5077028;28;20382;-56
2022/03/15 04:19:38;;;;;;;109.75;55.25;;;6.60;99.90;;;;;;5076062;28;20477;-54
2022/03/15 04:22:04;;;;;;;104.03;54.83;;;6.50;99.90;;;;;;5077048;28;20480;-52
2022/03/15 04:24:31;;;;;;;112.60;56.30;;;6.40;99.90;;;;;;5075656;28;20587;-56
2022/03/15 04:26:58;;;;;;;106.68;53.17;;;6.40;99.90;;;;;;5074091;28;20665;-55
2022/03/15 04:29:23;;;;;;;100.45;52.90;;;6.30;99.90;;;;;;5074918;28;20370;-53
2022/03/15 04:31:49;;;;;;;108.95;55.92;;;6.40;99.90;;;;;;5075941;28;20378;-56
2022/03/15 04:34:14;;;;;;;104.63;54.10;;;6.40;99.90;;;;;;5076571;28;20378;-57
2022/03/15 04:36:44;;;;;;;103.87;54.13;;;6.50;99.90;;;;;;5074409;28;20433;-57
2022/03/15 04:39:13;;;;;;;102.50;53.07;;;6.50;99.90;;;;;;5075230;28;20790;-55
2022/03/15 04:41:39;;;;;;;94.07;49.97;;;6.60;99.90;;;;;;5074823;28;20717;-53
2022/03/15 04:44:06;;;;;;;105.35;52.25;;;6.60;99.90;;;;;;5075001;28;20844;-54
2022/03/15 04:46:32;;;;;;;98.03;50.17;;;6.60;99.90;;;;;;5074838;28;20756;-54
2022/03/15 04:48:59;;;;;;;97.18;49.53;;;6.60;99.90;;;;;;5074216;28;20378;-56
2022/03/15 04:51:25;;;;;;;109.47;52.10;;;6.60;99.90;;;;;;5075697;28;20410;-56
2022/03/15 04:53:51;;;;;;;100.57;50.58;;;6.60;99.90;;;;;;5090710;28;20413;-56
2022/03/15 04:56:17;;;;;;;104.60;50.78;;;6.60;99.90;;;;;;5073547;28;20722;-55
2022/03/15 04:58:43;;;;;;;96.00;49.65;;;6.50;99.90;;;;;;5091630;28;20417;-55
2022/03/15 05:01:09;;;;;;;97.07;49.13;;;6.40;99.90;;;;;;5090834;28;20469;-53
2022/03/15 05:03:35;;;;;;;91.03;46.93;;;6.50;99.90;;;;;;5072825;28;20382;-56
2022/03/15 05:06:02;;;;;;;92.90;48.60;;;6.50;99.90;;;;;;5072874;28;20439;-52
2022/03/15 05:08:28;;;;;;;88.07;46.00;;;6.60;99.90;;;;;;5074469;28;20438;-57
2022/03/15 05:11:08;;;;;;;96.25;48.78;;;6.60;99.90;;;;;;5071942;28;20386;-56
2022/03/15 05:13:46;;;;;;;92.32;47.03;;;6.60;99.90;;;;;;5072647;28;20522;-54
2022/03/15 05:16:18;;;;;;;89.57;44.45;;;6.50;99.90;;;;;;5072911;28;20390;-55
2022/03/15 05:18:45;;;;;;;82.20;44.15;;;6.40;99.90;;;;;;5072851;28;20450;-55
2022/03/15 05:21:14;;;;;;;90.85;45.08;;;6.40;99.90;;;;;;5090081;28;20392;-56
2022/03/15 05:23:39;;;;;;;88.85;44.50;;;6.10;99.90;;;;;;5090586;28;20636;-55
2022/03/15 05:26:05;;;;;;;85.57;43.23;;;6.00;99.90;;;;;;5070095;28;20513;-55
2022/03/15 05:28:31;;;;;;;81.20;41.47;;;6.10;99.90;;;;;;5069656;28;20425;-55
2022/03/15 05:30:56;;;;;;;79.25;42.67;;;6.30;99.90;;;;;;5068319;28;20395;-57
2022/03/15 05:33:22;;;;;;;78.95;41.20;;;6.30;99.90;;;;;;5071255;28;20461;-57
2022/03/15 05:35:47;;;;;;;82.10;42.80;;;6.40;99.90;;;;;;5071566;28;20477;-56
2022/03/15 05:38:13;;;;;;;81.27;42.97;;;6.50;99.90;;;;;;5068666;28;20415;-56
2022/03/15 05:40:39;;;;;;;83.73;43.67;;;6.40;99.90;;;;;;5086557;28;20750;-57
2022/03/15 05:43:04;;;;;;;78.05;42.63;;;6.30;99.90;;;;;;5069743;28;20588;-51
2022/03/15 05:45:30;;;;;;;74.40;41.08;;;6.40;99.90;;;;;;5071957;28;20808;-54
2022/03/15 05:47:56;;;;;;;69.28;39.90;;;6.30;99.90;;;;;;5070711;28;20810;-55
2022/03/15 05:50:22;;;;;;;73.70;40.75;;;6.30;99.90;;;;;;5068764;28;20416;-57
2022/03/15 05:52:48;;;;;;;70.75;39.10;;;6.40;99.90;;;;;;5067701;28;20471;-53
2022/03/15 05:55:14;;;;;;;67.35;37.92;;;6.40;99.90;;;;;;5066038;28;20680;-55
2022/03/15 05:57:39;;;;;;;64.50;36.63;;;6.50;99.90;;;;;;5067146;28;20595;-55
2022/03/15 06:00:06;;;;;;;65.32;36.05;;;6.50;99.90;;;;;;5066825;28;20830;-56
2022/03/15 06:02:32;;;;;;;64.47;34.80;;;6.60;99.90;;;;;;5065819;28;20377;-54
2022/03/15 06:04:59;;;;;;;59.90;34.13;;;6.60;99.90;;;;;;5065701;28;20390;-52
2022/03/15 06:07:26;;;;;;;58.00;34.30;;;6.60;99.90;;;;;;5082999;28;20459;-56
2022/03/15 06:09:52;;;;;;;66.35;33.72;;;6.70;99.90;;;;;;5084152;28;20649;-54
2022/03/15 06:12:20;;;;;;;60.30;34.65;;;6.70;99.90;;;;;;5067332;28;20461;-53
2022/03/15 06:14:46;;;;;;;59.20;34.30;;;6.70;99.90;;;;;;5066965;28;20392;-57
2022/03/15 06:17:11;;;;;;;53.60;33.10;;;6.60;99.90;;;;;;5068159;28;20394;-55
2022/03/15 06:19:36;;;;;;;56.43;31.73;;;6.50;99.90;;;;;;5069927;28;20459;-55
2022/03/15 06:22:02;;;;;;;58.23;33.30;;;6.40;99.90;;;;;;5068670;28;20658;-50
2022/03/15 06:24:28;;;;;;;60.63;32.50;;;6.30;99.90;;;;;;5068068;28;20394;-53
2022/03/15 06:26:53;;;;;;;57.13;33.37;;;6.30;99.90;;;;;;5068548;28;20409;-53
2022/03/15 06:29:19;;;;;;;55.27;33.33;;;6.10;99.90;;;;;;5070313;28;20469;-53
2022/03/15 06:31:44;;;;;;;52.45;31.50;;;6.00;99.90;;;;;;5068238;28;20895;-54
2022/03/15 06:34:10;;;;;;;61.33;32.60;;;5.90;99.90;;;;;;5069464;28;20392;-54
2022/03/15 06:36:36;;;;;;;55.10;31.98;;;5.90;99.90;;;;;;5070944;28;20538;-55
2022/03/15 06:39:04;;;;;;;64.03;34.38;;;5.80;99.90;;;;;;5071477;28;20484;-55
2022/03/15 06:41:30;;;;;;;54.33;33.03;;;5.70;99.90;;;;;;5071576;28;20421;-62
2022/03/15 06:43:55;;;;;;;62.13;32.25;;;5.60;99.90;;;;;;5087869;28;20389;-55
2022/03/15 06:46:23;;;;;;;53.97;33.20;;;5.70;99.90;;;;;;5087833;28;20406;-55
2022/03/15 06:48:49;;;;;;;67.68;34.95;;;5.50;99.90;;;;;;5072376;28;20377;-55
2022/03/15 06:51:15;;;;;;;64.90;34.77;;;5.50;99.90;;;;;;5071116;28;20392;-56
2022/03/15 06:53:41;;;;;;;60.28;33.50;;;5.50;99.90;;;;;;5086454;28;20410;-55
2022/03/15 06:56:06;;;;;;;54.00;30.42;;;5.70;99.90;;;;;;5087501;28;20378;-57
2022/03/15 06:58:34;;;;;;;49.63;29.70;;;5.90;99.90;;;;;;5068209;28;20488;-55
2022/03/15 07:00:59;;;;;;;48.67;28.48;;;6.00;99.90;;;;;;5085646;28;20370;-54
2022/03/15 07:03:25;;;;;;;46.60;27.83;;;5.90;99.90;;;;;;5067859;28;20394;-53
2022/03/15 07:05:51;;;;;;;43.70;27.37;;;5.80;99.90;;;;;;5071357;28;20839;-54
2022/03/15 07:08:16;;;;;;;40.88;27.77;;;5.80;99.90;;;;;;5071799;28;20825;-55
2022/03/15 07:10:42;;;;;;;40.63;26.33;;;5.90;99.90;;;;;;5092125;28;20389;-56
2022/03/15 07:13:07;;;;;;;45.63;28.25;;;6.00;99.90;;;;;;5073288;28;20374;-57
2022/03/15 07:15:33;;;;;;;44.38;27.65;;;6.10;99.90;;;;;;5073617;28;20378;-53
2022/03/15 07:17:59;;;;;;;40.43;28.40;;;6.20;99.90;;;;;;5095339;28;20382;-53
2022/03/15 07:20:25;;;;;;;44.27;27.17;;;6.20;99.90;;;;;;5095420;28;20476;-54
2022/03/15 07:22:52;;;;;;;41.22;26.63;;;6.20;99.90;;;;;;5078170;28;20397;-57
2022/03/15 07:25:19;;;;;;;39.45;26.70;;;6.20;99.90;;;;;;5094746;28;20798;-55
2022/03/15 07:27:45;;;;;;;37.33;25.97;;;6.30;99.90;;;;;;5077334;28;20409;-53
2022/03/15 07:30:11;;;;;;;38.80;26.27;;;6.30;99.90;;;;;;5075009;28;20374;-54
2022/03/15 07:32:37;;;;;;;35.03;25.27;;;6.40;99.90;;;;;;5093928;28;20370;-55
2022/03/15 07:35:03;;;;;;;38.40;26.80;;;6.50;99.90;;;;;;5076494;28;20374;-55
2022/03/15 07:37:29;;;;;;;35.55;26.45;;;6.60;99.90;;;;;;5071374;28;20389;-56
2022/03/15 07:39:54;;;;;;;33.60;24.45;;;6.60;99.90;;;;;;5069013;28;20763;-57
2022/03/15 07:42:21;;;;;;;36.70;25.67;;;6.70;99.90;;;;;;5070359;28;20394;-53
2022/03/15 07:44:47;;;;;;;42.70;28.63;;;6.70;99.90;;;;;;5066252;28;20386;-56
2022/03/15 07:47:15;;;;;;;42.07;28.43;;;6.70;99.90;;;;;;5065429;28;20458;-57
2022/03/15 07:49:42;;;;;;;39.53;27.75;;;6.80;99.90;;;;;;5065696;28;20374;-55
2022/03/15 07:52:09;;;;;;;45.22;30.70;;;6.80;99.90;;;;;;5066882;28;20595;-55
2022/03/15 07:54:35;;;;;;;51.57;34.93;;;6.80;99.90;;;;;;5084011;28;20505;-55
2022/03/15 07:57:02;;;;;;;50.63;34.95;;;6.80;99.90;;;;;;5066899;28;20705;-57
2022/03/15 07:59:29;;;;;;;59.97;38.60;;;6.70;99.90;;;;;;5068533;28;20704;-55
2022/03/15 08:01:54;;;;;;;60.53;38.53;;;6.50;99.90;;;;;;5069753;28;20816;-55
2022/03/15 08:04:20;;;;;;;55.00;35.88;;;6.50;99.90;;;;;;5069826;28;20378;-55
2022/03/15 08:06:45;;;;;;;61.70;37.70;;;6.50;99.90;;;;;;5087797;28;20402;-55
2022/03/15 08:09:11;;;;;;;59.77;38.47;;;6.50;99.90;;;;;;5076526;28;20681;-56
2022/03/15 08:11:37;;;;;;;62.57;41.33;;;6.30;99.90;;;;;;5075080;28;20392;-57
2022/03/15 08:14:03;;;;;;;56.57;37.70;;;6.30;99.90;;;;;;5068845;28;20388;-56
2022/03/15 08:16:29;;;;;;;55.27;37.40;;;6.30;99.90;;;;;;5068784;28;20401;-57
2022/03/15 08:18:55;;;;;;;53.50;36.30;;;6.50;99.90;;;;;;5068691;28;20404;-57
2022/03/15 08:21:22;;;;;;;49.30;34.72;;;6.60;99.90;;;;;;5086115;28;20435;-52
2022/03/15 08:23:48;;;;;;;42.80;31.20;;;6.80;99.90;;;;;;5066045;28;20825;-53
2022/03/15 08:26:15;;;;;;;43.22;32.33;;;6.90;99.90;;;;;;5066995;28;20394;-57
2022/03/15 08:28:41;;;;;;;47.00;34.53;;;7.00;99.90;;;;;;5065548;28;20704;-55
2022/03/15 08:31:07;;;;;;;45.07;33.37;;;7.10;99.90;;;;;;5063999;28;20390;-55
2022/03/15 08:33:33;;;;;;;38.00;30.33;;;7.20;99.90;;;;;;5066183;28;20385;-57
2022/03/15 08:35:59;;;;;;;39.33;30.80;;;7.30;99.90;;;;;;5064938;28;20382;-54
2022/03/15 08:38:26;;;;;;;42.53;33.40;;;7.40;99.90;;;;;;5067425;28;20643;-56
2022/03/15 08:40:52;;;;;;;38.60;31.63;;;7.40;99.90;;;;;;5067686;28;20386;-57
2022/03/15 08:43:17;;;;;;;42.35;31.60;;;7.40;99.90;;;;;;5085175;28;20693;-57
2022/03/15 08:45:43;;;;;;;35.50;29.02;;;7.40;99.90;;;;;;5066701;28;20778;-55
2022/03/15 08:48:09;;;;;;;40.75;31.17;;;7.40;99.90;;;;;;5084212;28;20394;-56
2022/03/15 08:50:34;;;;;;;38.75;29.92;;;7.50;99.90;;;;;;5064995;28;20602;-57
2022/03/15 08:53:00;;;;;;;33.00;28.23;;;7.50;99.90;;;;;;5063738;28;20459;-56
2022/03/15 08:55:27;;;;;;;34.30;28.10;;;7.60;99.90;;;;;;5065510;28;20401;-55
2022/03/15 08:57:53;;;;;;;38.03;30.45;;;7.60;99.90;;;;;;5064669;28;20382;-57
2022/03/15 09:00:18;;;;;;;41.70;32.08;;;7.80;99.90;;;;;;5067697;28;20487;-55
2022/03/15 09:02:44;;;;;;;43.28;33.85;;;7.70;99.90;;;;;;5072863;28;20386;-57
2022/03/15 09:05:11;;;;;;;38.65;30.33;;;7.60;99.90;;;;;;5090452;28;20382;-57
2022/03/15 09:07:39;;;;;;;38.15;31.23;;;7.70;99.90;;;;;;5073369;28;20887;-57
2022/03/15 09:10:05;;;;;;;36.55;29.60;;;7.80;99.90;;;;;;5071538;28;20421;-56
2022/03/15 09:12:31;;;;;;;42.97;35.38;;;7.90;99.90;;;;;;5084971;28;20522;-54
2022/03/15 09:14:57;;;;;;;35.57;29.77;;;7.80;99.90;;;;;;5083399;28;20378;-52
2022/03/15 09:17:23;;;;;;;37.30;30.53;;;7.90;99.90;;;;;;5066675;28;20610;-56
2022/03/15 09:19:51;;;;;;;34.10;28.77;;;7.60;99.90;;;;;;5084794;28;20386;-54
2022/03/15 09:22:16;;;;;;;31.33;27.75;;;7.70;99.90;;;;;;5082846;28;20381;-52
2022/03/15 09:24:42;;;;;;;34.43;30.07;;;7.80;99.90;;;;;;5084044;28;20390;-53
2022/03/15 09:27:08;;;;;;;37.30;31.33;;;7.90;99.90;;;;;;5062597;28;20821;-57
2022/03/15 09:29:34;;;;;;;36.17;30.60;;;7.90;99.90;;;;;;5081656;28;20378;-58
2022/03/15 09:31:59;;;;;;;39.15;31.27;;;8.00;99.90;;;;;;5063773;28;20883;-57
2022/03/15 09:34:26;;;;;;;37.38;31.48;;;8.00;99.90;;;;;;5065011;28;20436;-57
2022/03/15 09:36:52;;;;;;;31.63;27.87;;;8.10;99.90;;;;;;5066210;28;20659;-56
2022/03/15 09:39:18;;;;;;;29.73;25.80;;;8.10;99.90;;;;;;5071400;28;20975;-55
2022/03/15 09:41:48;;;;;;;29.30;25.85;;;8.20;99.90;;;;;;5071636;28;20390;-54
2022/03/15 09:44:17;;;;;;;30.58;27.00;;;8.30;99.90;;;;;;5072324;28;20386;-53
2022/03/15 09:46:50;;;;;;;28.92;24.85;;;8.30;99.90;;;;;;5069256;28;20458;-56
2022/03/15 09:49:18;;;;;;;33.35;28.67;;;8.40;99.90;;;;;;5064262;28;20389;-52
2022/03/15 09:51:44;;;;;;;32.50;26.17;;;8.40;99.90;;;;;;5066169;28;20382;-54
2022/03/15 09:54:09;;;;;;;25.95;21.40;;;8.30;99.90;;;;;;5065532;28;20417;-55
2022/03/15 09:56:39;;;;;;;21.52;19.23;;;8.40;99.90;;;;;;5084805;28;20462;-56
2022/03/15 09:59:26;;;;;;;21.17;18.35;;;8.40;99.90;;;;;;5091407;28;20424;-55
2022/03/15 10:01:53;;;;;;;19.10;17.20;;;8.60;99.90;;;;;;5091617;28;21005;-56
2022/03/15 10:04:20;;;;;;;20.57;18.23;;;8.60;99.90;;;;;;5068772;28;20484;-53
2022/03/15 10:06:47;;;;;;;15.85;14.25;;;8.70;99.90;;;;;;5069610;28;20401;-56
2022/03/15 10:09:14;;;;;;;14.70;13.10;;;8.80;99.90;;;;;;5066115;28;20382;-52
2022/03/15 10:11:40;;;;;;;17.70;15.40;;;8.80;99.90;;;;;;5083317;28;20952;-56
2022/03/15 10:14:06;;;;;;;16.67;14.50;;;8.90;99.90;;;;;;5063081;28;20381;-55
2022/03/15 10:16:33;;;;;;;15.45;13.15;;;8.90;99.90;;;;;;5062889;28;20826;-55
2022/03/15 10:18:59;;;;;;;14.98;13.30;;;8.90;99.90;;;;;;5063165;28;20434;-56
2022/03/15 10:21:45;;;;;;;17.00;13.27;;;9.00;99.90;;;;;;5082270;28;20382;-56
2022/03/15 10:24:16;;;;;;;12.48;11.02;;;9.10;99.90;;;;;;5064197;28;20453;-51
2022/03/15 10:26:43;;;;;;;15.07;12.05;;;9.10;99.90;;;;;;5064281;28;20397;-57
2022/03/15 10:29:11;;;;;;;12.70;10.90;;;9.20;99.90;;;;;;5062457;28;20610;-50
2022/03/15 10:31:37;;;;;;;18.42;14.05;;;9.30;99.90;;;;;;5063463;28;20374;-54
2022/03/15 10:34:05;;;;;;;18.65;14.27;;;9.30;99.90;;;;;;5066281;28;20404;-54
2022/03/15 10:36:40;;;;;;;25.42;14.98;;;9.00;99.90;;;;;;5065293;28;20397;-56
2022/03/15 10:39:11;;;;;;;21.48;15.00;;;8.80;99.90;;;;;;5067417;28;20423;-56
2022/03/15 10:41:53;;;;;;;15.87;12.77;;;8.70;99.90;;;;;;5068694;28;20680;-56
2022/03/15 10:44:28;;;;;;;19.67;14.63;;;8.80;99.90;;;;;;5088150;28;20681;-55
2022/03/15 10:47:01;;;;;;;16.83;12.60;;;8.80;99.90;;;;;;5087679;28;20548;-51
2022/03/15 10:49:28;;;;;;;15.77;11.50;;;8.90;99.90;;;;;;5066630;28;20462;-53
2022/03/15 10:51:54;;;;;;;14.48;11.68;;;9.00;99.90;;;;;;5088067;28;20384;-53
2022/03/15 10:54:24;;;;;;;19.25;13.93;;;9.20;99.90;;;;;;5074778;28;20410;-54
2022/03/15 10:56:59;;;;;;;13.25;11.75;;;9.10;99.90;;;;;;5075362;28;20815;-55
2022/03/15 10:59:24;;;;;;;12.75;10.88;;;9.30;99.90;;;;;;5074302;28;20473;-57
2022/03/15 11:01:51;;;;;;;13.80;11.35;;;9.40;99.90;;;;;;5074390;28;20519;-56
2022/03/15 11:04:17;;;;;;;12.93;10.65;;;9.50;99.90;;;;;;5073644;28;20382;-52
2022/03/15 11:06:51;;;;;;;18.50;12.95;;;9.60;99.90;;;;;;5074635;28;20405;-53
2022/03/15 11:09:24;;;;;;;14.43;11.53;;;9.60;99.90;;;;;;5074584;28;20481;-51
2022/03/15 11:12:00;;;;;;;12.15;9.70;;;9.50;99.90;;;;;;5091737;28;20374;-56
2022/03/15 11:14:41;;;;;;;12.52;9.63;;;9.60;99.90;;;;;;5074099;28;20399;-53
2022/03/15 11:17:09;;;;;;;12.20;9.25;;;9.70;99.90;;;;;;5073458;28;20446;-53
2022/03/15 11:19:39;;;;;;;12.27;9.83;;;9.80;99.90;;;;;;5075654;28;21036;-55
2022/03/15 11:22:05;;;;;;;12.43;9.63;;;9.90;99.90;;;;;;5093897;28;20378;-55
2022/03/15 11:24:37;;;;;;;18.05;11.80;;;10.00;99.90;;;;;;5074229;28;20462;-55
2022/03/15 11:27:05;;;;;;;15.25;11.05;;;9.80;99.90;;;;;;5075017;28;20402;-55
2022/03/15 11:29:32;;;;;;;16.90;12.27;;;9.90;99.90;;;;;;5075604;28;20374;-54
2022/03/15 11:31:59;;;;;;;15.52;11.20;;;9.80;99.90;;;;;;5094242;28;20413;-55
2022/03/15 11:34:25;;;;;;;20.00;13.63;;;9.80;99.90;;;;;;5077169;28;20443;-54
2022/03/15 11:36:53;;;;;;;18.40;12.52;;;9.80;99.90;;;;;;5094057;28;20373;-57
2022/03/15 11:39:20;;;;;;;14.33;11.90;;;9.80;99.90;;;;;;5075026;28;21065;-55
2022/03/15 11:41:48;;;;;;;13.63;11.00;;;9.90;99.90;;;;;;5075035;28;20691;-56
2022/03/15 11:44:30;;;;;;;19.30;13.73;;;10.10;99.90;;;;;;5056268;28;20438;-53
2022/03/15 11:47:25;;;;;;;21.23;14.90;;;10.20;99.90;;;;;;5093885;28;20429;-57
2022/03/15 11:50:24;;;;;;;16.27;12.20;;;10.10;99.90;;;;;;5073095;28;20424;-55
2022/03/15 11:53:25;;;;;;;12.80;10.93;;;10.10;99.90;;;;;;5087006;28;20832;-54
2022/03/15 11:56:37;;;;;;;18.60;11.63;;;10.20;99.90;;;;;;5037680;28;20505;-54
2022/03/15 11:59:04;;;;;;;14.48;11.57;;;10.50;99.90;;;;;;5051460;28;20378;-51
2022/03/15 12:01:49;;;;;;;11.63;10.30;;;10.60;99.90;;;;;;5075628;28;20442;-57
2022/03/15 12:04:17;;;;;;;12.40;10.52;;;10.70;99.90;;;;;;5077362;28;20402;-55
2022/03/15 12:07:11;;;;;;;12.52;10.50;;;10.80;99.90;;;;;;5075874;28;20429;-52
2022/03/15 12:09:46;;;;;;;19.65;13.07;;;11.00;99.90;;;;;;5069025;28;20386;-57
2022/03/15 12:12:13;;;;;;;13.70;10.95;;;10.80;99.90;;;;;;5089352;28;20451;-54
2022/03/15 12:14:52;;;;;;;12.82;10.23;;;10.70;99.90;;;;;;5073157;28;20476;-56
2022/03/15 12:17:20;;;;;;;19.85;11.93;;;10.80;99.90;;;;;;5073222;28;20425;-56
2022/03/15 12:19:50;;;;;;;17.83;11.45;;;10.80;99.90;;;;;;5092458;28;20470;-57
2022/03/15 12:22:36;;;;;;;14.68;10.52;;;10.50;99.90;;;;;;5075053;28;20430;-57
2022/03/15 12:25:13;;;;;;;12.63;9.37;;;10.50;99.90;;;;;;5093959;28;20374;-56
2022/03/15 12:27:47;;;;;;;14.10;10.00;;;10.60;99.90;;;;;;5075091;28;20461;-56
2022/03/15 12:30:29;;;;;;;18.27;12.30;;;10.80;99.90;;;;;;5076394;28;20390;-55
2022/03/15 12:32:57;;;;;;;15.98;10.57;;;10.40;99.90;;;;;;5058561;28;20489;-55
2022/03/15 12:35:27;;;;;;;14.27;10.85;;;10.50;99.90;;;;;;5075087;28;20374;-55
2022/03/15 12:38:14;;;;;;;11.98;9.98;;;10.60;99.90;;;;;;5074667;28;20382;-55